Time;durP1;ratioP1;P1;durP2;ratioP2;P2;SDS_P1;SDS_P2;PMS_P1;PMS_P2;Temp;Humidity;BMP_temperature;BMP_pressure;BME280_temperature;BME280_humidity;BME280_pressure;Samples;Min_cycle;Max_cycle;Signal;HPM_P1;HPM_P2
2023/12/02 00:01:01;;;;;;;0.52;0.43;;;;;;;;;;4946483;28;20063;-77
2023/12/02 00:03:28;;;;;;;2.60;2.40;;;;;;;;;;4947915;28;20418;-76
2023/12/02 00:05:56;;;;;;;0.10;0.10;;;;;;;;;;4948426;28;20050;-76
2023/12/02 00:08:23;;;;;;;2.00;1.85;;;;;;;;;;4940979;28;20122;-75
2023/12/02 00:10:51;;;;;;;0.20;0.20;;;;;;;;;;4944021;28;20537;-76
2023/12/02 00:13:18;;;;;;;0.50;0.50;;;;;;;;;;4949785;28;20055;-77
2023/12/02 00:15:46;;;;;;;0.38;0.38;;;;;;;;;;4947394;28;20146;-76
2023/12/02 00:18:13;;;;;;;4.85;2.00;;;;;;;;;;4948762;28;20407;-75
2023/12/02 00:20:41;;;;;;;2.70;2.50;;;;;;;;;;4944009;28;20182;-75
2023/12/02 00:23:09;;;;;;;0.90;0.90;;;;;;;;;;4945477;28;20122;-76
2023/12/02 00:25:36;;;;;;;0.10;0.10;;;;;;;;;;4946151;28;20413;-75
2023/12/02 00:28:04;;;;;;;1.05;1.00;;;;;;;;;;4942667;28;20054;-75
2023/12/02 00:30:31;;;;;;;0.15;0.15;;;;;;;;;;4948157;28;20055;-75
2023/12/02 00:32:59;;;;;;;0.45;0.45;;;;;;;;;;4946751;28;20059;-76
2023/12/02 00:35:26;;;;;;;4.05;0.98;;;;;;;;;;4951964;28;20055;-76
2023/12/02 00:37:54;;;;;;;7.97;1.95;;;;;;;;;;4948100;28;20102;-77
2023/12/02 00:40:21;;;;;;;0.20;0.20;;;;;;;;;;4946757;28;20091;-77
2023/12/02 00:42:50;;;;;;;1.63;1.52;;;;;;;;;;4946306;28;20047;-77
2023/12/02 00:45:17;;;;;;;6.10;4.47;;;;;;;;;;4945403;28;20509;-76
2023/12/02 00:47:50;;;;;;;1.42;1.33;;;;;;;;;;4946732;28;20043;-76
2023/12/02 00:50:18;;;;;;;1.65;1.55;;;;;;;;;;4946144;28;20292;-76
2023/12/02 00:52:45;;;;;;;0.90;0.90;;;;;;;;;;4945016;28;20134;-76
2023/12/02 00:55:13;;;;;;;0.75;0.75;;;;;;;;;;4948425;28;20166;-76
2023/12/02 00:57:40;;;;;;;0.10;0.10;;;;;;;;;;4944895;28;20058;-76
2023/12/02 01:00:08;;;;;;;9.23;3.92;;;;;;;;;;4946030;28;20042;-77
2023/12/02 01:02:36;;;;;;;0.55;0.55;;;;;;;;;;4938364;28;20054;-77
2023/12/02 01:05:03;;;;;;;4.15;2.95;;;;;;;;;;4945922;28;20130;-76
2023/12/02 01:07:32;;;;;;;0.10;0.10;;;;;;;;;;4942366;28;20047;-76
2023/12/02 01:09:59;;;;;;;0.10;0.10;;;;;;;;;;4942522;28;20162;-77
2023/12/02 01:12:27;;;;;;;0.43;0.43;;;;;;;;;;4941662;28;20050;-76
2023/12/02 01:14:55;;;;;;;1.40;1.10;;;;;;;;;;4944276;28;20047;-76
2023/12/02 01:17:22;;;;;;;2.38;2.17;;;;;;;;;;4943247;28;20054;-75
2023/12/02 01:19:51;;;;;;;3.25;2.85;;;;;;;;;;4940607;28;20047;-76
2023/12/02 01:22:18;;;;;;;0.85;0.85;;;;;;;;;;4937880;28;20047;-75
2023/12/02 01:24:45;;;;;;;0.20;0.20;;;;;;;;;;4945897;28;20043;-74
2023/12/02 01:27:13;;;;;;;0.20;0.20;;;;;;;;;;4943872;28;20425;-74
2023/12/02 01:29:40;;;;;;;0.10;0.10;;;;;;;;;;4946994;28;20043;-74
2023/12/02 01:32:08;;;;;;;0.47;0.47;;;;;;;;;;4943071;28;20865;-74
2023/12/02 01:34:35;;;;;;;0.30;0.30;;;;;;;;;;4942985;28;20436;-74
2023/12/02 01:37:03;;;;;;;0.10;0.10;;;;;;;;;;4941530;28;20065;-74
2023/12/02 01:39:30;;;;;;;0.85;0.63;;;;;;;;;;4944009;28;20051;-74
2023/12/02 01:41:59;;;;;;;1.77;1.55;;;;;;;;;;4940704;28;20867;-75
2023/12/02 01:44:26;;;;;;;0.65;0.65;;;;;;;;;;4937457;28;20522;-75
2023/12/02 01:46:54;;;;;;;0.20;0.20;;;;;;;;;;4944359;28;20501;-75
2023/12/02 01:49:22;;;;;;;0.75;0.57;;;;;;;;;;4945269;28;20044;-75
2023/12/02 01:51:49;;;;;;;1.25;1.20;;;;;;;;;;4942829;28;20114;-73
2023/12/02 01:54:18;;;;;;;0.70;0.68;;;;;;;;;;4943590;28;20051;-74
2023/12/02 01:56:49;;;;;;;0.40;0.40;;;;;;;;;;4941580;28;20043;-74
2023/12/02 01:59:28;;;;;;;0.45;0.45;;;;;;;;;;4944683;28;20098;-74
2023/12/02 02:01:55;;;;;;;12.85;7.40;;;;;;;;;;4940847;28;20062;-74
2023/12/02 02:04:23;;;;;;;0.43;0.43;;;;;;;;;;4942910;28;20047;-74
2023/12/02 02:06:51;;;;;;;0.63;0.63;;;;;;;;;;4945211;28;20462;-74
2023/12/02 02:09:18;;;;;;;0.10;0.10;;;;;;;;;;4949036;28;20047;-74
2023/12/02 02:11:49;;;;;;;0.00;0.00;;;;;;;;;;4943101;28;20130;-74
2023/12/02 02:14:16;;;;;;;1.83;0.52;;;;;;;;;;4947310;28;20055;-75
2023/12/02 02:16:44;;;;;;;0.10;0.10;;;;;;;;;;4941233;28;20465;-73
2023/12/02 02:19:12;;;;;;;0.55;0.55;;;;;;;;;;4942269;28;20051;-74
2023/12/02 02:21:40;;;;;;;0.30;0.30;;;;;;;;;;4945550;28;20051;-74
2023/12/02 02:24:07;;;;;;;0.20;0.20;;;;;;;;;;4945950;28;20043;-73
2023/12/02 02:26:35;;;;;;;0.10;0.10;;;;;;;;;;4944299;28;20617;-74
2023/12/02 02:29:02;;;;;;;0.40;0.40;;;;;;;;;;4942129;28;20071;-74
2023/12/02 02:31:30;;;;;;;0.43;0.43;;;;;;;;;;4947009;28;20098;-74
2023/12/02 02:33:57;;;;;;;0.20;0.20;;;;;;;;;;4945979;28;20066;-74
2023/12/02 02:36:24;;;;;;;1.85;1.58;;;;;;;;;;4947718;28;20051;-74
2023/12/02 02:38:52;;;;;;;0.10;0.10;;;;;;;;;;4949102;28;20486;-74
2023/12/02 02:41:19;;;;;;;0.90;0.90;;;;;;;;;;4951956;28;20050;-74
2023/12/02 02:43:47;;;;;;;0.63;0.63;;;;;;;;;;4952651;28;20413;-74
2023/12/02 02:46:14;;;;;;;1.55;1.45;;;;;;;;;;4956304;28;20453;-74
2023/12/02 02:48:42;;;;;;;1.27;1.05;;;;;;;;;;4950097;28;20065;-74
2023/12/02 02:51:10;;;;;;;3.78;3.13;;;;;;;;;;4948752;28;20059;-73
2023/12/02 02:53:38;;;;;;;0.60;0.60;;;;;;;;;;4950850;28;20134;-75
2023/12/02 02:56:05;;;;;;;0.32;0.32;;;;;;;;;;4952801;28;20062;-73
2023/12/02 02:58:36;;;;;;;1.17;0.80;;;;;;;;;;4946877;28;20062;-73
2023/12/02 03:01:04;;;;;;;0.77;0.77;;;;;;;;;;4945128;28;20053;-73
2023/12/02 03:03:31;;;;;;;2.55;1.38;;;;;;;;;;4947771;28;20146;-73
2023/12/02 03:06:00;;;;;;;0.60;0.60;;;;;;;;;;4948609;28;20055;-73
2023/12/02 03:08:27;;;;;;;0.82;0.70;;;;;;;;;;4943932;28;20055;-74
2023/12/02 03:10:55;;;;;;;0.93;0.88;;;;;;;;;;4945872;28;20601;-74
2023/12/02 03:17:54;;;;;;;2.20;1.85;;;;;;;;;;4946391;28;20055;-86
2023/12/02 03:22:01;;;;;;;;;;;;;;;;;;;;;
2023/12/02 03:25:48;;;;;;;0.93;0.93;;;;;;;;;;4936300;29;20039;-87
2023/12/02 03:28:55;;;;;;;1.45;1.27;;;;;;;;;;4945132;28;20047;-86
2023/12/02 03:32:04;;;;;;;1.98;1.88;;;;;;;;;;4947458;28;20055;-86
2023/12/02 03:35:24;;;;;;;;;;;;;;;;;;;;;
2023/12/02 03:38:09;;;;;;;0.47;0.47;;;;;;;;;;4958063;23;20047;-87
2023/12/02 03:44:24;;;;;;;1.88;1.45;;;;;;;;;;5007413;28;20042;-86
2023/12/02 03:47:02;;;;;;;0.10;0.10;;;;;;;;;;5009494;28;20049;-87
2023/12/02 03:53:23;;;;;;;0.65;0.65;;;;;;;;;;4975356;28;20046;-88
2023/12/02 03:56:27;;;;;;;0.28;0.28;;;;;;;;;;4990883;28;20431;-87
2023/12/02 03:59:07;;;;;;;0.10;0.10;;;;;;;;;;4987337;28;20050;-87
2023/12/02 04:01:41;;;;;;;2.35;2.15;;;;;;;;;;4973371;28;20049;-88
2023/12/02 04:04:08;;;;;;;0.68;0.68;;;;;;;;;;4992336;28;20049;-88
2023/12/02 04:06:38;;;;;;;0.35;0.35;;;;;;;;;;4974539;28;20158;-87
2023/12/02 04:09:06;;;;;;;0.25;0.25;;;;;;;;;;4987981;28;20046;-87
2023/12/02 04:11:40;;;;;;;0.10;0.10;;;;;;;;;;4988725;28;20546;-87
2023/12/02 04:14:07;;;;;;;0.45;0.45;;;;;;;;;;4968616;28;20054;-88
2023/12/02 04:16:39;;;;;;;0.10;0.10;;;;;;;;;;4988554;28;20053;-88
2023/12/02 04:19:09;;;;;;;0.90;0.90;;;;;;;;;;4990501;28;20058;-88
2023/12/02 04:21:45;;;;;;;0.28;0.25;;;;;;;;;;4970158;28;20046;-89
2023/12/02 04:24:15;;;;;;;1.95;1.80;;;;;;;;;;4995947;28;20042;-88
2023/12/02 04:26:44;;;;;;;0.43;0.43;;;;;;;;;;4974446;28;20040;-88
2023/12/02 04:29:14;;;;;;;0.40;0.40;;;;;;;;;;4994860;28;20069;-89
2023/12/02 04:31:49;;;;;;;1.58;1.48;;;;;;;;;;4973960;28;20084;-89
2023/12/02 04:34:20;;;;;;;0.10;0.10;;;;;;;;;;4971394;28;20051;-89
2023/12/02 04:37:00;;;;;;;0.35;0.35;;;;;;;;;;4987507;28;20042;-88
2023/12/02 04:39:37;;;;;;;1.87;1.40;;;;;;;;;;4985249;28;20057;-89
2023/12/02 04:42:39;;;;;;;1.55;1.45;;;;;;;;;;4989777;28;20112;-89
2023/12/02 04:45:36;;;;;;;1.40;1.17;;;;;;;;;;4988041;28;20106;-89
2023/12/02 04:48:15;;;;;;;2.33;2.15;;;;;;;;;;4987376;28;20163;-88
2023/12/02 04:50:58;;;;;;;8.48;2.90;;;;;;;;;;4993403;28;20050;-89
2023/12/02 04:54:26;;;;;;;10.50;3.42;;;;;;;;;;4969570;28;20076;-88
2023/12/02 04:57:54;;;;;;;;;;;;;;;;;;;;;
2023/12/02 05:00:49;;;;;;;14.40;4.68;;;;;;;;;;4993375;28;21723;-89
2023/12/02 05:03:23;;;;;;;2.33;1.60;;;;;;;;;;4998780;28;20076;-88
2023/12/02 05:06:35;;;;;;;2.83;2.35;;;;;;;;;;4946018;28;20096;-88
2023/12/02 05:10:04;;;;;;;;;;;;;;;;;;;;;
2023/12/02 05:13:44;;;;;;;0.20;0.20;;;;;;;;;;4976389;28;20054;-88
2023/12/02 05:16:32;;;;;;;0.38;0.38;;;;;;;;;;4985754;28;20109;-87
2023/12/02 05:19:10;;;;;;;0.45;0.45;;;;;;;;;;4973625;28;20051;-86
2023/12/02 05:21:46;;;;;;;0.68;0.68;;;;;;;;;;4981865;28;20153;-87
2023/12/02 05:24:13;;;;;;;8.40;5.00;;;;;;;;;;4998449;28;20129;-86
2023/12/02 05:26:41;;;;;;;2.60;2.40;;;;;;;;;;5014096;28;20101;-86
2023/12/02 05:29:09;;;;;;;1.70;1.65;;;;;;;;;;4978927;28;20058;-86
2023/12/02 05:31:38;;;;;;;3.10;1.70;;;;;;;;;;4989178;28;20096;-86
2023/12/02 05:34:05;;;;;;;1.90;0.90;;;;;;;;;;4981510;28;20144;-85
2023/12/02 05:36:33;;;;;;;1.17;0.95;;;;;;;;;;4988349;28;20054;-86
2023/12/02 05:39:00;;;;;;;3.17;2.15;;;;;;;;;;4990081;28;20059;-85
2023/12/02 05:41:28;;;;;;;0.52;0.52;;;;;;;;;;4981781;28;20891;-86
2023/12/02 05:43:55;;;;;;;0.00;0.00;;;;;;;;;;4970021;28;20092;-85
2023/12/02 05:46:23;;;;;;;0.30;0.30;;;;;;;;;;4983311;28;20077;-85
2023/12/02 05:48:50;;;;;;;1.20;1.05;;;;;;;;;;4985071;28;20038;-85
2023/12/02 05:51:18;;;;;;;2.58;2.38;;;;;;;;;;4990375;28;20132;-85
2023/12/02 05:53:45;;;;;;;0.57;0.57;;;;;;;;;;4990713;28;21912;-85
2023/12/02 05:56:13;;;;;;;0.20;0.20;;;;;;;;;;4995310;28;20042;-84
2023/12/02 05:58:45;;;;;;;1.60;1.50;;;;;;;;;;4989671;28;20065;-86
2023/12/02 06:01:21;;;;;;;1.10;1.10;;;;;;;;;;4994131;28;20050;-85
2023/12/02 06:03:49;;;;;;;4.95;2.50;;;;;;;;;;4995273;28;20046;-85
2023/12/02 06:06:17;;;;;;;0.10;0.10;;;;;;;;;;4992313;28;20509;-84
2023/12/02 06:08:46;;;;;;;1.27;0.40;;;;;;;;;;4978688;28;20060;-84
2023/12/02 06:11:13;;;;;;;1.65;0.82;;;;;;;;;;4975649;28;20046;-84
2023/12/02 06:13:44;;;;;;;0.10;0.10;;;;;;;;;;4985599;28;20491;-83
2023/12/02 06:16:13;;;;;;;0.10;0.10;;;;;;;;;;4986434;28;20043;-84
2023/12/02 06:18:40;;;;;;;0.85;0.82;;;;;;;;;;4974874;28;20039;-83
2023/12/02 06:21:11;;;;;;;1.00;0.45;;;;;;;;;;4977934;28;20077;-83
2023/12/02 06:23:39;;;;;;;0.10;0.10;;;;;;;;;;4991292;28;20655;-84
2023/12/02 06:26:07;;;;;;;1.33;1.23;;;;;;;;;;4978813;28;20042;-82
2023/12/02 06:28:35;;;;;;;3.15;2.95;;;;;;;;;;5002145;28;20045;-83
2023/12/02 06:31:02;;;;;;;5.72;4.60;;;;;;;;;;4996913;28;20043;-83
2023/12/02 06:33:30;;;;;;;0.90;0.90;;;;;;;;;;4998011;28;20232;-83
2023/12/02 06:35:57;;;;;;;1.05;1.05;;;;;;;;;;4992768;28;20491;-83
2023/12/02 06:38:25;;;;;;;1.67;1.55;;;;;;;;;;4991740;28;20198;-83
2023/12/02 06:40:53;;;;;;;0.73;0.73;;;;;;;;;;4997835;28;20061;-83
2023/12/02 06:43:20;;;;;;;0.30;0.30;;;;;;;;;;4996569;28;20081;-83
2023/12/02 06:45:47;;;;;;;0.10;0.10;;;;;;;;;;4996728;28;20126;-83
2023/12/02 06:48:15;;;;;;;0.20;0.20;;;;;;;;;;4996101;28;20043;-83
2023/12/02 06:50:43;;;;;;;0.10;0.10;;;;;;;;;;4994135;28;20046;-83
2023/12/02 06:53:13;;;;;;;1.02;0.85;;;;;;;;;;4995666;28;20518;-83
2023/12/02 06:55:41;;;;;;;1.50;1.40;;;;;;;;;;4991579;28;20069;-83
2023/12/02 06:58:11;;;;;;;0.40;0.10;;;;;;;;;;5000253;28;20050;-82
2023/12/02 07:00:38;;;;;;;1.88;1.77;;;;;;;;;;5000003;28;20060;-83
2023/12/02 07:03:08;;;;;;;0.10;0.10;;;;;;;;;;4995318;28;20043;-84
2023/12/02 07:05:36;;;;;;;0.98;0.95;;;;;;;;;;4995862;28;20042;-84
2023/12/02 07:08:04;;;;;;;1.63;0.98;;;;;;;;;;4994909;28;20049;-84
2023/12/02 07:10:31;;;;;;;2.58;1.42;;;;;;;;;;4992262;28;20068;-85
2023/12/02 07:12:58;;;;;;;2.25;2.05;;;;;;;;;;4986942;28;20044;-86
2023/12/02 07:15:27;;;;;;;0.98;0.90;;;;;;;;;;4991428;28;20108;-84
2023/12/02 07:17:54;;;;;;;0.22;0.22;;;;;;;;;;4993139;28;20039;-83
2023/12/02 07:20:22;;;;;;;0.17;0.17;;;;;;;;;;4991228;28;20053;-83
2023/12/02 07:22:49;;;;;;;0.70;0.70;;;;;;;;;;4995493;28;20125;-82
2023/12/02 07:25:18;;;;;;;1.75;1.65;;;;;;;;;;4999889;28;20043;-82
2023/12/02 07:27:46;;;;;;;0.45;0.45;;;;;;;;;;5002556;28;20043;-82
2023/12/02 07:30:17;;;;;;;1.10;1.10;;;;;;;;;;4994436;28;20133;-82
2023/12/02 07:32:47;;;;;;;2.28;2.05;;;;;;;;;;4997856;28;20121;-83
2023/12/02 07:35:14;;;;;;;2.35;1.95;;;;;;;;;;4996948;28;20053;-82
2023/12/02 07:37:43;;;;;;;5.57;3.72;;;;;;;;;;4995830;28;20050;-83
2023/12/02 07:40:11;;;;;;;8.05;3.67;;;;;;;;;;4979157;28;20038;-82
2023/12/02 07:42:38;;;;;;;4.53;4.07;;;;;;;;;;4996007;28;20058;-82
2023/12/02 07:45:06;;;;;;;1.90;1.80;;;;;;;;;;4997515;28;20133;-82
2023/12/02 07:47:33;;;;;;;0.63;0.63;;;;;;;;;;4993951;28;20050;-83
2023/12/02 07:50:01;;;;;;;2.95;2.03;;;;;;;;;;4972718;28;20092;-83
2023/12/02 07:52:30;;;;;;;1.23;1.23;;;;;;;;;;4987724;28;20073;-83
2023/12/02 07:55:00;;;;;;;0.85;0.60;;;;;;;;;;4992676;28;20088;-83
2023/12/02 07:57:28;;;;;;;0.45;0.45;;;;;;;;;;4975672;28;20130;-85
2023/12/02 07:59:56;;;;;;;0.20;0.20;;;;;;;;;;4990341;28;20042;-84
2023/12/02 08:02:24;;;;;;;1.15;1.02;;;;;;;;;;4986847;28;20054;-84
2023/12/02 08:04:57;;;;;;;6.55;3.95;;;;;;;;;;4987492;28;20065;-84
2023/12/02 08:07:27;;;;;;;0.10;0.10;;;;;;;;;;4971160;28;20129;-84
2023/12/02 08:09:55;;;;;;;0.10;0.10;;;;;;;;;;4995032;28;20049;-83
2023/12/02 08:12:26;;;;;;;3.53;3.20;;;;;;;;;;4992805;28;20046;-84
2023/12/02 08:14:53;;;;;;;1.73;1.67;;;;;;;;;;4995408;28;20034;-84
2023/12/02 08:17:20;;;;;;;2.10;1.92;;;;;;;;;;4990466;28;20050;-84
2023/12/02 08:19:48;;;;;;;0.35;0.35;;;;;;;;;;4975904;28;20065;-84
2023/12/02 08:22:19;;;;;;;0.20;0.20;;;;;;;;;;4992979;28;20050;-84
2023/12/02 08:24:49;;;;;;;1.23;1.13;;;;;;;;;;4989639;28;20041;-84
2023/12/02 08:27:17;;;;;;;1.65;0.77;;;;;;;;;;4988280;28;20050;-84
2023/12/02 08:29:47;;;;;;;0.43;0.43;;;;;;;;;;4989450;28;20038;-84
2023/12/02 08:32:14;;;;;;;2.35;2.15;;;;;;;;;;4990000;28;20054;-84
2023/12/02 08:34:42;;;;;;;0.13;0.13;;;;;;;;;;4994341;28;20081;-84
2023/12/02 08:37:11;;;;;;;2.17;2.05;;;;;;;;;;4993138;28;20073;-83
2023/12/02 08:39:39;;;;;;;1.40;0.50;;;;;;;;;;4970626;28;20101;-83
2023/12/02 08:42:06;;;;;;;0.95;0.95;;;;;;;;;;4988089;28;20053;-84
2023/12/02 08:44:33;;;;;;;2.25;1.95;;;;;;;;;;5004869;28;20508;-86
2023/12/02 09:02:53;;;;;;;0.55;0.55;;;;;;;;;;4999782;28;20196;-88
2023/12/02 09:05:36;;;;;;;6.03;3.90;;;;;;;;;;5017388;28;20041;-85
2023/12/02 09:08:11;;;;;;;1.17;1.17;;;;;;;;;;5009371;28;20525;-87
2023/12/02 09:15:24;;;;;;;1.98;1.80;;;;;;;;;;5041979;28;20074;-84
2023/12/02 09:18:07;;;;;;;3.08;2.13;;;;;;;;;;5044266;28;20045;-84
2023/12/02 09:20:41;;;;;;;8.98;4.95;;;;;;;;;;5041813;28;20116;-86
2023/12/02 09:23:09;;;;;;;4.38;3.85;;;;;;;;;;5009861;28;20056;-85
2023/12/02 09:25:38;;;;;;;3.25;2.60;;;;;;;;;;5043550;28;20691;-85
2023/12/02 09:28:06;;;;;;;1.98;1.88;;;;;;;;;;5046469;28;20060;-86
2023/12/02 09:30:34;;;;;;;2.50;2.25;;;;;;;;;;5047463;28;20135;-85
2023/12/02 09:33:04;;;;;;;1.42;1.05;;;;;;;;;;5044749;28;20048;-85
2023/12/02 09:35:35;;;;;;;1.65;1.55;;;;;;;;;;5045291;28;20175;-87
2023/12/02 09:38:04;;;;;;;0.90;0.82;;;;;;;;;;5046716;28;20060;-87
2023/12/02 09:40:54;;;;;;;3.75;3.45;;;;;;;;;;5029924;28;20128;-85
2023/12/02 09:43:41;;;;;;;1.88;1.70;;;;;;;;;;5002792;28;20049;-85
2023/12/02 09:46:19;;;;;;;0.38;0.38;;;;;;;;;;5040044;28;20044;-84
2023/12/02 09:49:02;;;;;;;3.75;3.42;;;;;;;;;;5045780;28;20076;-84
2023/12/02 09:51:33;;;;;;;2.85;2.65;;;;;;;;;;5042326;28;20045;-84
2023/12/02 09:54:14;;;;;;;2.22;1.35;;;;;;;;;;5043273;28;20059;-83
2023/12/02 09:56:47;;;;;;;1.48;1.38;;;;;;;;;;5049016;28;20051;-83
2023/12/02 09:59:21;;;;;;;1.50;1.40;;;;;;;;;;5047327;28;20517;-83
2023/12/02 10:01:55;;;;;;;1.45;1.35;;;;;;;;;;5046250;28;20044;-83
2023/12/02 10:04:33;;;;;;;0.65;0.65;;;;;;;;;;5030679;28;20529;-83
2023/12/02 10:07:06;;;;;;;2.05;1.90;;;;;;;;;;5030482;28;20053;-84
2023/12/02 10:09:42;;;;;;;2.53;2.15;;;;;;;;;;5028252;28;20045;-84
2023/12/02 10:12:09;;;;;;;2.28;2.13;;;;;;;;;;5044573;28;20088;-83
2023/12/02 10:14:38;;;;;;;5.22;1.35;;;;;;;;;;5044121;28;20511;-83
2023/12/02 10:17:09;;;;;;;1.00;1.00;;;;;;;;;;5048984;28;20564;-83
2023/12/02 10:19:41;;;;;;;3.63;3.38;;;;;;;;;;5047432;28;20045;-84
2023/12/02 10:22:10;;;;;;;1.50;1.50;;;;;;;;;;5050543;28;20048;-83
2023/12/02 10:24:48;;;;;;;2.15;1.95;;;;;;;;;;5060104;28;20095;-83
2023/12/02 10:27:18;;;;;;;0.88;0.88;;;;;;;;;;5048769;28;20489;-83
2023/12/02 10:29:54;;;;;;;0.10;0.10;;;;;;;;;;5048049;28;20142;-83
2023/12/02 10:32:41;;;;;;;0.63;0.63;;;;;;;;;;5048769;28;20041;-83
2023/12/02 10:35:20;;;;;;;0.93;0.50;;;;;;;;;;5045992;28;20049;-84
2023/12/02 10:37:53;;;;;;;0.85;0.85;;;;;;;;;;5031879;28;20049;-84
2023/12/02 10:40:23;;;;;;;4.18;3.75;;;;;;;;;;5051230;28;20423;-83
2023/12/02 10:43:05;;;;;;;0.30;0.30;;;;;;;;;;5052616;28;20514;-83
2023/12/02 10:45:33;;;;;;;;;;;;;;;;;;5054627;28;20063;-82
2023/12/02 10:48:00;;;;;;;0.20;0.20;;;;;;;;;;5052070;28;19974;-83
2023/12/02 10:50:29;;;;;;;3.42;2.65;;;;;;;;;;5055578;28;20041;-83
2023/12/02 10:53:06;;;;;;;2.40;2.28;;;;;;;;;;5050534;28;20068;-83
2023/12/02 10:55:37;;;;;;;14.77;7.55;;;;;;;;;;5054052;28;20048;-83
2023/12/02 10:58:05;;;;;;;11.80;6.28;;;;;;;;;;5032310;28;20126;-84
2023/12/02 11:00:36;;;;;;;1.75;1.65;;;;;;;;;;5051706;28;20098;-83
2023/12/02 11:03:10;;;;;;;1.52;1.42;;;;;;;;;;5052813;28;20057;-84
2023/12/02 11:05:45;;;;;;;0.73;0.73;;;;;;;;;;5051665;28;20049;-84
2023/12/02 11:08:18;;;;;;;3.15;2.85;;;;;;;;;;5049552;28;20048;-83
2023/12/02 11:10:52;;;;;;;1.90;1.80;;;;;;;;;;5051292;28;20041;-84
2023/12/02 11:13:20;;;;;;;3.00;1.73;;;;;;;;;;5050296;28;20055;-83
2023/12/02 11:15:57;;;;;;;0.95;0.95;;;;;;;;;;5050445;28;20044;-83
2023/12/02 11:18:35;;;;;;;3.17;2.58;;;;;;;;;;5033469;28;20103;-83
2023/12/02 11:21:11;;;;;;;1.83;1.70;;;;;;;;;;5052052;28;20120;-84
2023/12/02 11:23:39;;;;;;;2.38;2.17;;;;;;;;;;5041165;28;20570;-84
2023/12/02 11:26:10;;;;;;;3.70;1.65;;;;;;;;;;5021371;28;20122;-84
2023/12/02 11:28:49;;;;;;;4.40;4.00;;;;;;;;;;5049119;28;20051;-83
2023/12/02 11:31:42;;;;;;;10.73;4.97;;;;;;;;;;5049856;28;20049;-83
2023/12/02 11:34:17;;;;;;;11.85;7.15;;;;;;;;;;5040956;28;20041;-83
2023/12/02 11:36:54;;;;;;;4.95;4.32;;;;;;;;;;5051590;28;20052;-83
2023/12/02 11:39:43;;;;;;;1.80;1.70;;;;;;;;;;5030329;28;20505;-83
2023/12/02 11:42:14;;;;;;;1.08;1.00;;;;;;;;;;5048111;28;20462;-83
2023/12/02 11:45:00;;;;;;;0.50;0.50;;;;;;;;;;5033801;28;20064;-84
2023/12/02 11:47:47;;;;;;;1.95;1.83;;;;;;;;;;5050010;28;20776;-83
2023/12/02 11:50:34;;;;;;;0.68;0.68;;;;;;;;;;5050368;28;20470;-84
2023/12/02 11:53:14;;;;;;;1.08;0.95;;;;;;;;;;5050464;28;20045;-83
2023/12/02 11:55:48;;;;;;;4.55;4.15;;;;;;;;;;5043937;28;20057;-84
2023/12/02 11:58:38;;;;;;;0.30;0.30;;;;;;;;;;5045943;28;20045;-84
2023/12/02 12:01:15;;;;;;;1.25;1.13;;;;;;;;;;5049743;28;20045;-83
2023/12/02 12:03:52;;;;;;;1.80;1.70;;;;;;;;;;5047996;28;20509;-84
2023/12/02 12:06:34;;;;;;;3.33;1.83;;;;;;;;;;5048855;28;20049;-83
2023/12/02 12:09:12;;;;;;;0.20;0.15;;;;;;;;;;5029938;28;20052;-83
2023/12/02 12:11:40;;;;;;;0.25;0.25;;;;;;;;;;5048676;28;20406;-82
2023/12/02 12:14:08;;;;;;;0.57;0.57;;;;;;;;;;5029628;28;20037;-82
2023/12/02 12:16:35;;;;;;;1.45;0.45;;;;;;;;;;5025155;28;20060;-82
2023/12/02 12:19:10;;;;;;;0.95;0.95;;;;;;;;;;5031349;28;20052;-82
2023/12/02 12:21:37;;;;;;;2.92;1.27;;;;;;;;;;5048504;28;20417;-82
2023/12/02 12:24:05;;;;;;;1.42;1.35;;;;;;;;;;5048913;28;20079;-82
2023/12/02 12:26:32;;;;;;;1.98;1.88;;;;;;;;;;5031764;28;20037;-83
2023/12/02 12:29:01;;;;;;;1.40;1.30;;;;;;;;;;5032259;28;20202;-84
2023/12/02 12:31:30;;;;;;;0.55;0.55;;;;;;;;;;5049274;28;20386;-84
2023/12/02 12:34:00;;;;;;;3.25;2.42;;;;;;;;;;5051662;28;20037;-84
2023/12/02 12:36:28;;;;;;;0.55;0.55;;;;;;;;;;5050857;28;20053;-84
2023/12/02 12:38:56;;;;;;;3.30;1.90;;;;;;;;;;5030516;28;20053;-85
2023/12/02 12:41:25;;;;;;;0.40;0.40;;;;;;;;;;5045209;28;20410;-85
2023/12/02 12:43:53;;;;;;;0.80;0.68;;;;;;;;;;5046679;28;20136;-85
2023/12/02 12:46:21;;;;;;;3.10;2.80;;;;;;;;;;5051147;28;20056;-83
2023/12/02 12:48:51;;;;;;;0.30;0.30;;;;;;;;;;5026013;28;20548;-83
2023/12/02 12:51:19;;;;;;;9.77;8.93;;;;;;;;;;5030277;28;20044;-83
2023/12/02 12:53:56;;;;;;;0.38;0.38;;;;;;;;;;5047327;28;20049;-83
2023/12/02 12:56:29;;;;;;;3.47;3.20;;;;;;;;;;5045387;28;20051;-83
2023/12/02 12:59:00;;;;;;;5.15;2.85;;;;;;;;;;5047942;28;20036;-83
2023/12/02 13:01:29;;;;;;;5.80;3.22;;;;;;;;;;5046401;28;20048;-84
2023/12/02 13:04:04;;;;;;;0.52;0.38;;;;;;;;;;5053775;28;20669;-83
2023/12/02 13:06:44;;;;;;;1.10;1.00;;;;;;;;;;5054899;28;20566;-81
2023/12/02 13:09:12;;;;;;;0.98;0.93;;;;;;;;;;5053642;28;20048;-82
2023/12/02 13:11:39;;;;;;;1.08;1.08;;;;;;;;;;5048096;28;20049;-84
2023/12/02 13:14:07;;;;;;;3.70;2.60;;;;;;;;;;5049419;28;20048;-85
2023/12/02 13:16:41;;;;;;;2.63;2.42;;;;;;;;;;5025586;28;20101;-83
2023/12/02 13:19:11;;;;;;;0.10;0.10;;;;;;;;;;5050338;28;20045;-85
2023/12/02 13:21:43;;;;;;;9.93;9.15;;;;;;;;;;5047590;28;20502;-83
2023/12/02 13:24:18;;;;;;;8.18;3.33;;;;;;;;;;5046348;28;20048;-83
2023/12/02 13:26:46;;;;;;;7.90;4.68;;;;;;;;;;5047565;28;20041;-83
2023/12/02 13:29:15;;;;;;;2.67;2.47;;;;;;;;;;5048875;28;20059;-83
2023/12/02 13:31:43;;;;;;;2.00;1.80;;;;;;;;;;5049858;28;20103;-83
2023/12/02 13:34:11;;;;;;;3.20;2.95;;;;;;;;;;5048519;28;20410;-83
2023/12/02 13:36:50;;;;;;;4.32;3.38;;;;;;;;;;5012943;28;20052;-83
2023/12/02 13:39:18;;;;;;;3.88;2.45;;;;;;;;;;5033642;28;20104;-83
2023/12/02 13:41:52;;;;;;;1.17;1.08;;;;;;;;;;5051101;28;20136;-83
2023/12/02 13:44:21;;;;;;;6.03;3.47;;;;;;;;;;5056635;28;20080;-83
2023/12/02 13:47:03;;;;;;;3.50;3.25;;;;;;;;;;5039057;28;20116;-83
2023/12/02 13:49:46;;;;;;;1.95;1.90;;;;;;;;;;5037582;28;20048;-83
2023/12/02 13:52:28;;;;;;;3.00;2.83;;;;;;;;;;5051248;28;20045;-84
2023/12/02 13:55:06;;;;;;;0.75;0.75;;;;;;;;;;5050501;28;20076;-84
2023/12/02 13:57:56;;;;;;;5.22;2.38;;;;;;;;;;5047349;28;20102;-83
2023/12/02 14:00:24;;;;;;;5.00;1.23;;;;;;;;;;5052675;28;20048;-84
2023/12/02 14:02:59;;;;;;;4.00;3.65;;;;;;;;;;5046335;28;20041;-84
2023/12/02 14:05:27;;;;;;;2.25;2.05;;;;;;;;;;5011864;28;20045;-84
2023/12/02 14:07:57;;;;;;;4.88;4.07;;;;;;;;;;5025984;28;20414;-84
2023/12/02 14:10:26;;;;;;;4.15;1.75;;;;;;;;;;5046246;28;20044;-85
2023/12/02 14:13:05;;;;;;;3.10;2.80;;;;;;;;;;5044993;28;20075;-84
2023/12/02 14:15:53;;;;;;;0.30;0.30;;;;;;;;;;5046965;28;20047;-84
2023/12/02 14:18:41;;;;;;;1.02;1.02;;;;;;;;;;5055286;28;20057;-84
2023/12/02 14:21:20;;;;;;;3.45;2.80;;;;;;;;;;5047375;28;20056;-84
2023/12/02 14:23:51;;;;;;;2.70;1.95;;;;;;;;;;5053982;28;20127;-84
2023/12/02 14:26:38;;;;;;;4.07;3.20;;;;;;;;;;5036183;28;20048;-84
2023/12/02 14:29:24;;;;;;;4.05;2.92;;;;;;;;;;5051546;28;20106;-84
2023/12/02 14:32:10;;;;;;;5.60;4.22;;;;;;;;;;5055782;28;20047;-85
2023/12/02 14:34:56;;;;;;;4.07;3.72;;;;;;;;;;5053692;28;20132;-84
2023/12/02 14:37:39;;;;;;;2.75;2.50;;;;;;;;;;5051466;28;20045;-84
2023/12/02 14:40:14;;;;;;;0.43;0.43;;;;;;;;;;5035660;28;20048;-84
2023/12/02 14:42:57;;;;;;;2.97;2.72;;;;;;;;;;5051737;28;20048;-84
2023/12/02 14:45:51;;;;;;;1.80;1.73;;;;;;;;;;5033858;28;20046;-84
2023/12/02 14:48:19;;;;;;;3.50;1.70;;;;;;;;;;5049030;28;20131;-84
2023/12/02 14:50:47;;;;;;;3.45;3.15;;;;;;;;;;5051140;28;20038;-84
2023/12/02 14:53:19;;;;;;;1.20;1.13;;;;;;;;;;5049875;28;20095;-83
2023/12/02 14:55:47;;;;;;;2.63;2.42;;;;;;;;;;5030975;28;20068;-84
2023/12/02 14:58:27;;;;;;;2.85;2.08;;;;;;;;;;5029168;28;20123;-84
2023/12/02 15:00:55;;;;;;;0.77;0.77;;;;;;;;;;5050772;28;20045;-84
2023/12/02 15:03:26;;;;;;;1.95;1.70;;;;;;;;;;5032298;28;20052;-84
2023/12/02 15:05:55;;;;;;;1.05;1.05;;;;;;;;;;5049304;28;20095;-84
2023/12/02 15:08:26;;;;;;;;;;;;;;;;;;5033232;28;20055;-85
2023/12/02 15:10:54;;;;;;;8.43;6.10;;;;;;;;;;5046957;28;19936;-85
2023/12/02 15:13:26;;;;;;;5.82;4.15;;;;;;;;;;5045935;28;20111;-85
2023/12/02 15:15:54;;;;;;;4.00;3.63;;;;;;;;;;5039342;28;20147;-86
2023/12/02 15:18:22;;;;;;;4.18;3.10;;;;;;;;;;5049366;28;20049;-84
2023/12/02 15:21:12;;;;;;;5.00;2.10;;;;;;;;;;5044906;28;20055;-84
2023/12/02 15:23:45;;;;;;;5.10;3.33;;;;;;;;;;5030184;28;20045;-86
2023/12/02 15:26:13;;;;;;;0.10;0.10;;;;;;;;;;5052777;28;20068;-84
2023/12/02 15:28:48;;;;;;;0.73;0.73;;;;;;;;;;5046243;28;20564;-84
2023/12/02 15:31:31;;;;;;;2.47;2.33;;;;;;;;;;5042891;28;20299;-85
2023/12/02 15:34:00;;;;;;;2.97;2.77;;;;;;;;;;5029123;28;20052;-84
2023/12/02 15:36:49;;;;;;;6.03;4.10;;;;;;;;;;5064482;28;20055;-84
2023/12/02 15:41:12;;;;;;;0.95;0.95;;;;;;;;;;5062017;28;20033;-84
2023/12/02 15:45:09;;;;;;;;;;;;;;;;;;;;;
2023/12/02 15:48:46;;;;;;;1.15;1.00;;;;;;;;;;5068962;28;20105;-84
2023/12/02 15:52:37;;;;;;;0.43;0.15;;;;;;;;;;5058402;28;20048;-83
2023/12/02 16:03:48;;;;;;;;;;;;;;;;;;;;;
2023/12/02 16:11:17;;;;;;;0.90;0.90;;;;;;;;;;5052711;28;20051;-84
2023/12/02 16:14:10;;;;;;;3.15;2.63;;;;;;;;;;5049677;28;20193;-83
2023/12/02 16:16:46;;;;;;;0.45;0.45;;;;;;;;;;5051518;28;20054;-83